Time;durP1;ratioP1;P1;durP2;ratioP2;P2;SDS_P1;SDS_P2;PMS_P1;PMS_P2;Temp;Humidity;BMP_temperature;BMP_pressure;BME280_temperature;BME280_humidity;BME280_pressure;Samples;Min_cycle;Max_cycle;Signal;HPM_P1;HPM_P2
2022/12/01 00:02:03;;;;;;;76.10;51.40;;;;;;;;;;10495257;28;20069;-62
2022/12/01 00:07:03;;;;;;;69.70;50.72;;;;;;;;;;10490379;28;20446;-64
2022/12/01 00:12:04;;;;;;;69.40;48.83;;;;;;;;;;10485134;28;20365;-60
2022/12/01 00:17:05;;;;;;;65.68;48.13;;;;;;;;;;10494320;28;20032;-61
2022/12/01 00:22:05;;;;;;;67.78;47.90;;;;;;;;;;10483442;28;20039;-60
2022/12/01 00:27:06;;;;;;;71.22;47.92;;;;;;;;;;10494349;28;20029;-60
2022/12/01 00:32:06;;;;;;;69.53;48.67;;;;;;;;;;10491979;28;20028;-62
2022/12/01 00:37:07;;;;;;;61.33;45.80;;;;;;;;;;10493942;28;20033;-63
2022/12/01 00:42:09;;;;;;;68.75;45.70;;;;;;;;;;10491452;28;20055;-64
2022/12/01 00:47:09;;;;;;;65.65;46.50;;;;;;;;;;10493619;28;20475;-62
2022/12/01 00:52:12;;;;;;;64.10;46.83;;;;;;;;;;10493557;28;20039;-60
2022/12/01 00:57:12;;;;;;;66.80;46.95;;;;;;;;;;10480219;28;20029;-60
2022/12/01 01:02:13;;;;;;;62.92;46.58;;;;;;;;;;10491332;28;20029;-65
2022/12/01 01:07:13;;;;;;;67.78;44.40;;;;;;;;;;10483932;28;20051;-63
2022/12/01 01:12:14;;;;;;;63.60;44.35;;;;;;;;;;10490798;28;20020;-62
2022/12/01 01:17:15;;;;;;;57.67;42.78;;;;;;;;;;10492689;28;20471;-61
2022/12/01 01:22:15;;;;;;;58.55;42.25;;;;;;;;;;10491771;28;20434;-62
2022/12/01 01:27:16;;;;;;;55.95;42.05;;;;;;;;;;10491437;28;20244;-61
2022/12/01 01:32:16;;;;;;;56.92;41.47;;;;;;;;;;10492153;28;20028;-65
2022/12/01 01:37:17;;;;;;;60.97;42.72;;;;;;;;;;10483545;28;20028;-61
2022/12/01 01:42:19;;;;;;;57.25;40.17;;;;;;;;;;10491324;28;20111;-62
2022/12/01 01:47:27;;;;;;;52.88;40.13;;;;;;;;;;10472045;28;20041;-61
2022/12/01 01:52:27;;;;;;;57.17;41.20;;;;;;;;;;10462924;28;20099;-63
2022/12/01 01:57:31;;;;;;;62.97;41.15;;;;;;;;;;10486726;28;20039;-61
2022/12/01 02:02:42;;;;;;;55.08;39.65;;;;;;;;;;10486299;28;20111;-61
2022/12/01 02:07:44;;;;;;;55.00;39.08;;;;;;;;;;10471585;28;20047;-62
2022/12/01 02:13:23;;;;;;;56.67;39.53;;;;;;;;;;10471755;28;20075;-63
2022/12/01 02:18:59;;;;;;;55.92;40.50;;;;;;;;;;10486849;28;20025;-61
2022/12/01 02:24:24;;;;;;;52.22;38.17;;;;;;;;;;10487469;28;20541;-64
2022/12/01 02:29:43;;;;;;;54.80;39.70;;;;;;;;;;10477992;28;20029;-64
2022/12/01 02:34:57;;;;;;;54.53;37.13;;;;;;;;;;10476057;28;20047;-65
2022/12/01 02:40:21;;;;;;;51.35;37.30;;;;;;;;;;10473435;28;20020;-65
2022/12/01 02:45:54;;;;;;;53.67;36.88;;;;;;;;;;10472968;28;20048;-63
2022/12/01 02:51:00;;;;;;;50.38;35.95;;;;;;;;;;10473060;28;20502;-65
2022/12/01 02:56:04;;;;;;;50.50;35.67;;;;;;;;;;10467922;28;20031;-60
2022/12/01 03:01:36;;;;;;;51.97;36.10;;;;;;;;;;10472128;28;20043;-60
2022/12/01 03:07:08;;;;;;;43.97;33.20;;;;;;;;;;10488250;28;20124;-61
2022/12/01 03:12:36;;;;;;;49.95;35.72;;;;;;;;;;10457012;28;20029;-62
2022/12/01 03:17:46;;;;;;;49.58;36.45;;;;;;;;;;10458440;28;20378;-64
2022/12/01 03:22:57;;;;;;;49.03;34.97;;;;;;;;;;10470719;28;20543;-66
2022/12/01 03:28:00;;;;;;;45.30;33.97;;;;;;;;;;10469838;28;20032;-62
2022/12/01 03:33:08;;;;;;;48.15;33.08;;;;;;;;;;10489003;28;20115;-61
2022/12/01 03:38:18;;;;;;;45.10;32.95;;;;;;;;;;10487828;28;20426;-64
2022/12/01 03:43:25;;;;;;;46.85;32.13;;;;;;;;;;10473145;28;20060;-62
2022/12/01 03:48:26;;;;;;;42.80;31.52;;;;;;;;;;10495531;28;20037;-63
2022/12/01 03:53:45;;;;;;;43.47;32.00;;;;;;;;;;10493445;28;20039;-61
2022/12/01 03:58:49;;;;;;;42.80;31.33;;;;;;;;;;10475259;28;20025;-63
2022/12/01 04:03:50;;;;;;;43.25;30.98;;;;;;;;;;10477369;28;20105;-63
2022/12/01 04:08:50;;;;;;;40.15;30.27;;;;;;;;;;10489774;28;20033;-64
2022/12/01 04:13:51;;;;;;;41.53;30.58;;;;;;;;;;10495182;28;20044;-65
2022/12/01 04:18:51;;;;;;;45.15;31.63;;;;;;;;;;10491240;28;20036;-61
2022/12/01 04:24:01;;;;;;;42.30;30.30;;;;;;;;;;10494750;28;20466;-62
2022/12/01 04:29:06;;;;;;;45.45;30.77;;;;;;;;;;10483225;28;20074;-64
2022/12/01 04:34:08;;;;;;;42.60;29.58;;;;;;;;;;10481401;28;20101;-62
2022/12/01 04:39:09;;;;;;;40.28;28.33;;;;;;;;;;10494141;28;20131;-61
2022/12/01 04:44:10;;;;;;;37.90;28.45;;;;;;;;;;10493056;28;20039;-63
2022/12/01 04:49:10;;;;;;;40.38;29.35;;;;;;;;;;10493011;28;20031;-60
2022/12/01 04:54:11;;;;;;;39.08;28.05;;;;;;;;;;10439829;28;20464;-65
2022/12/01 04:59:12;;;;;;;34.83;27.05;;;;;;;;;;10489877;28;20434;-64
2022/12/01 05:04:13;;;;;;;35.15;27.13;;;;;;;;;;10490688;28;20033;-60
2022/12/01 05:09:15;;;;;;;39.10;27.48;;;;;;;;;;10492345;28;20507;-59
2022/12/01 05:14:16;;;;;;;36.72;26.48;;;;;;;;;;10492556;28;20111;-64
2022/12/01 05:24:35;;;;;;;;;;;;;;;;;;10479687;28;20111;-64
2022/12/01 05:29:35;;;;;;;33.90;25.87;;;;;;;;;;10492622;28;20439;-61
2022/12/01 05:34:36;;;;;;;37.35;26.80;;;;;;;;;;10483794;28;20465;-64
2022/12/01 05:39:39;;;;;;;33.78;25.48;;;;;;;;;;10492364;28;20067;-64
2022/12/01 05:44:39;;;;;;;33.53;25.15;;;;;;;;;;10487901;28;20036;-64
2022/12/01 05:49:40;;;;;;;32.33;24.52;;;;;;;;;;10491452;28;20029;-60
2022/12/01 05:54:40;;;;;;;36.53;25.42;;;;;;;;;;10480443;28;20056;-60
2022/12/01 05:59:41;;;;;;;32.72;23.60;;;;;;;;;;10490869;28;20028;-61
2022/12/01 06:04:41;;;;;;;31.25;24.20;;;;;;;;;;10489961;28;20530;-61
2022/12/01 06:09:45;;;;;;;34.53;24.55;;;;;;;;;;10489610;28;20376;-61
2022/12/01 06:14:45;;;;;;;32.75;23.83;;;;;;;;;;10490151;28;20098;-65
2022/12/01 06:19:46;;;;;;;31.90;23.73;;;;;;;;;;10488213;28;20024;-63
2022/12/01 06:24:47;;;;;;;31.10;23.98;;;;;;;;;;10490457;28;20376;-64
2022/12/01 06:29:48;;;;;;;30.58;22.60;;;;;;;;;;10470679;28;20017;-64
2022/12/01 06:34:48;;;;;;;38.72;21.77;;;;;;;;;;10489814;28;20032;-64
2022/12/01 06:39:49;;;;;;;33.65;19.83;;;;;;;;;;10482284;28;20020;-60
2022/12/01 06:44:50;;;;;;;36.85;19.40;;;;;;;;;;10487151;28;20471;-66
2022/12/01 06:49:50;;;;;;;32.55;18.73;;;;;;;;;;10476803;28;20426;-66
2022/12/01 06:54:51;;;;;;;25.58;18.52;;;;;;;;;;10481419;28;20035;-60
2022/12/01 06:59:51;;;;;;;26.05;17.13;;;;;;;;;;10484045;28;20376;-62
2022/12/01 07:04:52;;;;;;;31.63;17.88;;;;;;;;;;10475089;28;20048;-62
2022/12/01 07:09:52;;;;;;;40.85;14.50;;;;;;;;;;10481896;28;20033;-60
2022/12/01 07:14:53;;;;;;;25.55;15.57;;;;;;;;;;10482213;28;20271;-66
2022/12/01 07:19:53;;;;;;;20.23;13.52;;;;;;;;;;10483674;28;20083;-66
2022/12/01 07:24:54;;;;;;;30.63;13.60;;;;;;;;;;10493591;28;20039;-65
2022/12/01 07:29:55;;;;;;;23.25;13.00;;;;;;;;;;10496277;28;20017;-66
2022/12/01 07:34:55;;;;;;;29.88;12.18;;;;;;;;;;10496077;28;20025;-67
2022/12/01 07:39:56;;;;;;;24.27;11.80;;;;;;;;;;10478813;22;20049;-60
2022/12/01 07:44:56;;;;;;;22.98;12.75;;;;;;;;;;10457415;28;20028;-60
2022/12/01 07:49:57;;;;;;;21.58;12.10;;;;;;;;;;10490487;28;20468;-60
2022/12/01 07:54:57;;;;;;;23.95;12.75;;;;;;;;;;10479133;28;20389;-57
2022/12/01 07:59:58;;;;;;;25.42;12.27;;;;;;;;;;10489680;28;20380;-60
2022/12/01 08:04:59;;;;;;;17.70;11.02;;;;;;;;;;10480400;28;20055;-59
2022/12/01 08:09:59;;;;;;;21.27;11.68;;;;;;;;;;10455134;28;20021;-59
2022/12/01 08:15:00;;;;;;;17.17;11.75;;;;;;;;;;10453068;28;20025;-60
2022/12/01 08:20:00;;;;;;;19.45;11.05;;;;;;;;;;10452980;28;20025;-60
2022/12/01 08:25:01;;;;;;;19.48;10.65;;;;;;;;;;10452867;28;20025;-60
2022/12/01 08:30:02;;;;;;;21.73;11.15;;;;;;;;;;10451917;28;20516;-56
2022/12/01 08:35:03;;;;;;;19.92;10.50;;;;;;;;;;10453325;28;20025;-57
2022/12/01 08:40:04;;;;;;;16.08;10.77;;;;;;;;;;10452969;28;20045;-57
2022/12/01 08:45:05;;;;;;;22.63;11.63;;;;;;;;;;10452041;28;20031;-57
2022/12/01 08:50:07;;;;;;;18.15;10.68;;;;;;;;;;10453833;28;20380;-57
2022/12/01 08:55:08;;;;;;;23.45;10.27;;;;;;;;;;10451904;28;20480;-57
2022/12/01 09:00:10;;;;;;;15.80;10.02;;;;;;;;;;10453686;28;20029;-57
2022/12/01 09:05:10;;;;;;;16.90;9.10;;;;;;;;;;10450760;28;20025;-57
2022/12/01 09:10:11;;;;;;;21.35;10.02;;;;;;;;;;10452218;28;20418;-58
2022/12/01 09:15:13;;;;;;;17.27;10.57;;;;;;;;;;10452691;28;20029;-57
2022/12/01 09:20:14;;;;;;;20.58;10.07;;;;;;;;;;10453602;28;20021;-58
2022/12/01 09:25:15;;;;;;;22.50;9.63;;;;;;;;;;10452829;28;20032;-57
2022/12/01 09:30:15;;;;;;;16.45;9.18;;;;;;;;;;10450632;28;20106;-57
2022/12/01 09:35:16;;;;;;;16.98;9.50;;;;;;;;;;10451163;28;20036;-57
2022/12/01 09:40:17;;;;;;;15.05;9.27;;;;;;;;;;10449569;28;20049;-57
2022/12/01 09:45:38;;;;;;;20.33;9.10;;;;;;;;;;10445573;28;20033;-57
2022/12/01 09:50:38;;;;;;;14.50;9.20;;;;;;;;;;10449930;28;20112;-57
2022/12/01 09:55:39;;;;;;;14.85;8.18;;;;;;;;;;10445302;28;20420;-58
2022/12/01 10:00:42;;;;;;;16.55;8.50;;;;;;;;;;10444842;28;20041;-56
2022/12/01 10:05:54;;;;;;;14.02;7.72;;;;;;;;;;10432789;28;20032;-56
2022/12/01 10:11:10;;;;;;;14.38;8.40;;;;;;;;;;10449484;28;20033;-57
2022/12/01 10:16:15;;;;;;;13.35;8.32;;;;;;;;;;10448002;28;20560;-59
2022/12/01 10:21:54;;;;;;;12.00;8.32;;;;;;;;;;10432874;28;20025;-58
2022/12/01 10:27:30;;;;;;;13.37;8.00;;;;;;;;;;10418850;28;20029;-57
2022/12/01 10:32:51;;;;;;;10.10;7.80;;;;;;;;;;10419217;28;20462;-55
2022/12/01 10:38:05;;;;;;;15.02;8.00;;;;;;;;;;10438251;28;20034;-59
2022/12/01 10:43:09;;;;;;;13.18;7.25;;;;;;;;;;10403459;28;20055;-55
2022/12/01 10:48:15;;;;;;;13.43;7.60;;;;;;;;;;10416100;28;20119;-56
2022/12/01 10:53:35;;;;;;;13.43;7.43;;;;;;;;;;10428292;28;20133;-59
2022/12/01 10:58:42;;;;;;;12.93;6.90;;;;;;;;;;10445891;28;20585;-58
2022/12/01 11:03:48;;;;;;;10.27;7.72;;;;;;;;;;10445538;28;20025;-56
2022/12/01 11:08:59;;;;;;;15.13;7.57;;;;;;;;;;10447269;28;20029;-58
2022/12/01 11:14:15;;;;;;;10.38;7.40;;;;;;;;;;10422045;28;20033;-57
2022/12/01 11:19:33;;;;;;;13.35;7.07;;;;;;;;;;10417430;28;20025;-58
2022/12/01 11:25:17;;;;;;;12.97;6.80;;;;;;;;;;10447489;28;20396;-57
2022/12/01 11:30:28;;;;;;;10.48;6.95;;;;;;;;;;10405502;28;20479;-59
2022/12/01 11:35:36;;;;;;;7.78;6.13;;;;;;;;;;10426055;28;20029;-59
2022/12/01 11:40:53;;;;;;;11.02;6.72;;;;;;;;;;10445222;28;20053;-57
2022/12/01 11:45:56;;;;;;;10.88;6.10;;;;;;;;;;10415697;28;20033;-59
2022/12/01 11:51:18;;;;;;;13.00;6.30;;;;;;;;;;10427147;28;20025;-59
2022/12/01 11:56:27;;;;;;;10.27;6.38;;;;;;;;;;10445387;28;20408;-56
2022/12/01 12:02:03;;;;;;;10.38;6.50;;;;;;;;;;10448763;28;20033;-58
2022/12/01 12:07:19;;;;;;;12.75;5.78;;;;;;;;;;10453234;28;20107;-58
2022/12/01 12:12:26;;;;;;;10.60;6.15;;;;;;;;;;10447870;28;20459;-57
2022/12/01 12:18:03;;;;;;;8.68;6.00;;;;;;;;;;10462576;28;20025;-58
2022/12/01 12:23:15;;;;;;;7.35;5.38;;;;;;;;;;10453362;28;20041;-58
2022/12/01 12:28:39;;;;;;;11.98;6.72;;;;;;;;;;10453501;28;20369;-58
2022/12/01 12:34:22;;;;;;;7.25;5.65;;;;;;;;;;10453066;28;20052;-58
2022/12/01 12:39:39;;;;;;;7.70;5.38;;;;;;;;;;10442782;28;20048;-57
2022/12/01 12:45:12;;;;;;;9.02;5.80;;;;;;;;;;10447890;28;20039;-57
2022/12/01 12:50:37;;;;;;;8.82;5.57;;;;;;;;;;10430403;28;20037;-57
2022/12/01 12:55:46;;;;;;;9.35;5.55;;;;;;;;;;10435489;28;20120;-57
2022/12/01 13:01:16;;;;;;;18.05;5.15;;;;;;;;;;10438209;28;20029;-57
2022/12/01 13:06:24;;;;;;;18.88;10.27;;;;;;;;;;10443188;28;20055;-55
2022/12/01 13:11:39;;;;;;;20.00;13.03;;;;;;;;;;10450260;28;20484;-57
2022/12/01 13:16:46;;;;;;;21.40;14.13;;;;;;;;;;10434521;28;20039;-57
2022/12/01 13:21:49;;;;;;;23.38;13.45;;;;;;;;;;10433562;28;20031;-58
2022/12/01 13:26:56;;;;;;;20.75;13.02;;;;;;;;;;10462401;28;20021;-58
2022/12/01 13:31:56;;;;;;;21.17;13.95;;;;;;;;;;10414604;28;20037;-58
2022/12/01 13:36:57;;;;;;;22.17;14.30;;;;;;;;;;10415637;28;20033;-56
2022/12/01 13:42:07;;;;;;;18.38;13.23;;;;;;;;;;10433952;28;20041;-57
2022/12/01 13:47:11;;;;;;;17.50;11.63;;;;;;;;;;10445741;28;20150;-57
2022/12/01 13:52:20;;;;;;;19.80;12.80;;;;;;;;;;10426042;28;20025;-58
2022/12/01 13:57:27;;;;;;;21.75;11.77;;;;;;;;;;10453367;28;20037;-58
2022/12/01 14:02:31;;;;;;;19.27;12.15;;;;;;;;;;10446438;28;20037;-58
2022/12/01 14:07:36;;;;;;;19.95;12.18;;;;;;;;;;10447919;28;20452;-58
2022/12/01 14:12:40;;;;;;;17.52;10.95;;;;;;;;;;10420777;28;20043;-58
2022/12/01 14:17:43;;;;;;;20.88;12.05;;;;;;;;;;10430096;28;20044;-57
2022/12/01 14:22:49;;;;;;;18.73;11.07;;;;;;;;;;10429847;28;20031;-57
2022/12/01 14:27:54;;;;;;;21.10;10.60;;;;;;;;;;10445777;28;20043;-57
2022/12/01 14:33:51;;;;;;;14.95;10.45;;;;;;;;;;10456771;28;20697;-58
2022/12/01 14:39:02;;;;;;;16.95;10.38;;;;;;;;;;10457300;28;20044;-58
2022/12/01 14:44:43;;;;;;;16.83;10.20;;;;;;;;;;10431795;28;20040;-57
2022/12/01 14:50:08;;;;;;;43.13;11.13;;;;;;;;;;10445460;28;20040;-57
2022/12/01 14:55:19;;;;;;;32.50;9.80;;;;;;;;;;10461814;28;20481;-58
2022/12/01 15:00:23;;;;;;;55.95;11.85;;;;;;;;;;10438226;28;20446;-58
2022/12/01 15:05:27;;;;;;;77.70;10.88;;;;;;;;;;10461868;28;20036;-57
2022/12/01 15:10:34;;;;;;;51.05;11.15;;;;;;;;;;10429846;28;20091;-56
2022/12/01 15:15:36;;;;;;;62.92;11.90;;;;;;;;;;10424113;28;20562;-48
2022/12/01 15:20:37;;;;;;;35.10;9.88;;;;;;;;;;10444269;28;20040;-54
2022/12/01 15:25:43;;;;;;;36.55;9.63;;;;;;;;;;10451183;23;20069;-47
2022/12/01 15:30:49;;;;;;;38.85;10.43;;;;;;;;;;10375287;28;20017;-48
2022/12/01 15:35:51;;;;;;;39.72;9.38;;;;;;;;;;10421991;28;20097;-48
2022/12/01 15:40:53;;;;;;;36.33;9.88;;;;;;;;;;10446122;28;20295;-47
2022/12/01 15:46:02;;;;;;;28.52;9.15;;;;;;;;;;10435822;28;20492;-48
2022/12/01 15:51:16;;;;;;;36.20;9.40;;;;;;;;;;10454557;28;20055;-54
2022/12/01 15:56:35;;;;;;;25.45;9.35;;;;;;;;;;10442871;28;20063;-47
2022/12/01 16:01:36;;;;;;;;;;;;;;;;;;10436252;28;20078;-47
2022/12/01 16:06:38;;;;;;;18.70;8.32;;;;;;;;;;10451075;28;19966;-48
2022/12/01 16:11:39;;;;;;;32.28;9.45;;;;;;;;;;10435589;28;20074;-47
2022/12/01 16:16:47;;;;;;;23.45;8.20;;;;;;;;;;10449706;28;20114;-48
2022/12/01 16:21:54;;;;;;;17.07;8.60;;;;;;;;;;10450967;28;20033;-50
2022/12/01 16:27:15;;;;;;;16.30;8.02;;;;;;;;;;10452746;28;20045;-46
2022/12/01 16:32:38;;;;;;;16.98;8.35;;;;;;;;;;10452489;28;20025;-52
2022/12/01 16:37:39;;;;;;;16.73;7.93;;;;;;;;;;10435613;28;20028;-47
2022/12/01 16:42:40;;;;;;;14.18;7.78;;;;;;;;;;10452469;28;20025;-46
2022/12/01 16:47:42;;;;;;;15.32;8.02;;;;;;;;;;10451704;28;20407;-47
2022/12/01 16:52:42;;;;;;;14.32;8.20;;;;;;;;;;10451726;28;20021;-47
2022/12/01 16:57:43;;;;;;;19.25;8.13;;;;;;;;;;10445078;28;20041;-47
2022/12/01 17:02:44;;;;;;;17.98;8.68;;;;;;;;;;10451724;28;20075;-47
2022/12/01 17:07:44;;;;;;;16.52;7.70;;;;;;;;;;10452164;28;20029;-46
2022/12/01 17:12:45;;;;;;;18.63;7.63;;;;;;;;;;10451860;28;20074;-48
2022/12/01 17:17:46;;;;;;;15.40;7.13;;;;;;;;;;10451258;28;20388;-47
2022/12/01 17:22:46;;;;;;;12.98;7.30;;;;;;;;;;10450505;28;20028;-47
2022/12/01 17:27:47;;;;;;;17.00;7.72;;;;;;;;;;10450200;28;20048;-47
2022/12/01 17:32:47;;;;;;;11.48;7.13;;;;;;;;;;10433735;28;20028;-50
2022/12/01 17:37:48;;;;;;;12.80;7.43;;;;;;;;;;10446335;28;20201;-47
2022/12/01 17:42:49;;;;;;;16.60;7.43;;;;;;;;;;10443820;28;20104;-48
2022/12/01 17:47:50;;;;;;;15.82;7.13;;;;;;;;;;10447060;28;20024;-48
2022/12/01 17:52:50;;;;;;;15.43;7.43;;;;;;;;;;10443582;28;20107;-46
2022/12/01 17:57:51;;;;;;;14.48;7.47;;;;;;;;;;10432059;28;20025;-47
2022/12/01 18:02:51;;;;;;;12.30;7.55;;;;;;;;;;10447335;28;20496;-47
2022/12/01 18:07:52;;;;;;;15.70;6.50;;;;;;;;;;10448755;28;20484;-47
2022/12/01 18:12:53;;;;;;;15.25;7.15;;;;;;;;;;10445386;28;20076;-47
2022/12/01 18:17:54;;;;;;;12.13;7.20;;;;;;;;;;10434168;28;20029;-47
2022/12/01 18:22:54;;;;;;;11.98;6.50;;;;;;;;;;10448877;28;20066;-47
2022/12/01 18:27:57;;;;;;;10.68;6.13;;;;;;;;;;10440620;28;20037;-47
2022/12/01 18:32:58;;;;;;;9.80;6.35;;;;;;;;;;10443161;28;20035;-49
2022/12/01 18:37:59;;;;;;;13.77;6.45;;;;;;;;;;10433940;28;20391;-47
2022/12/01 18:42:59;;;;;;;10.43;6.05;;;;;;;;;;10434909;28;20029;-47
2022/12/01 18:48:03;;;;;;;12.45;6.45;;;;;;;;;;10436149;28;20033;-47
2022/12/01 18:53:03;;;;;;;12.80;6.07;;;;;;;;;;10434725;28;20031;-49
2022/12/01 18:58:04;;;;;;;9.57;6.00;;;;;;;;;;10442153;28;20472;-54
2022/12/01 19:03:04;;;;;;;14.52;7.13;;;;;;;;;;10441108;28;20057;-50
2022/12/01 19:08:05;;;;;;;9.63;6.20;;;;;;;;;;10443018;28;20033;-50
2022/12/01 19:13:06;;;;;;;11.27;6.75;;;;;;;;;;10443729;28;20104;-48
2022/12/01 19:18:06;;;;;;;11.77;6.35;;;;;;;;;;10441562;28;20044;-50
2022/12/01 19:23:07;;;;;;;16.05;6.93;;;;;;;;;;10449790;28;20024;-52
2022/12/01 19:28:07;;;;;;;13.48;6.95;;;;;;;;;;10447688;28;20048;-49
2022/12/01 19:33:08;;;;;;;11.13;6.88;;;;;;;;;;10439480;28;20601;-51
2022/12/01 19:38:09;;;;;;;11.88;6.80;;;;;;;;;;10452687;28;20021;-51
2022/12/01 19:43:09;;;;;;;13.18;7.22;;;;;;;;;;10451593;28;20029;-52
2022/12/01 19:48:10;;;;;;;13.18;6.20;;;;;;;;;;10439135;28;20036;-52
2022/12/01 19:53:11;;;;;;;11.90;6.75;;;;;;;;;;10435091;28;20035;-49
2022/12/01 19:58:11;;;;;;;10.65;6.45;;;;;;;;;;10435708;28;20029;-52
2022/12/01 20:03:12;;;;;;;8.55;6.13;;;;;;;;;;10442761;28;20033;-50
2022/12/01 20:08:13;;;;;;;10.77;6.05;;;;;;;;;;10443239;28;20040;-58
2022/12/01 20:13:13;;;;;;;11.13;6.05;;;;;;;;;;10451638;28;20021;-49
2022/12/01 20:18:14;;;;;;;12.05;6.18;;;;;;;;;;10441385;28;20087;-53
2022/12/01 20:23:15;;;;;;;10.02;6.40;;;;;;;;;;10427083;28;20245;-48
2022/12/01 20:28:16;;;;;;;9.00;5.88;;;;;;;;;;10438174;28;20603;-51
2022/12/01 20:33:17;;;;;;;10.10;6.70;;;;;;;;;;10449388;28;20040;-49
2022/12/01 20:38:17;;;;;;;9.00;5.65;;;;;;;;;;10446689;28;20491;-50
2022/12/01 20:43:18;;;;;;;11.13;6.40;;;;;;;;;;10445629;28;20045;-49
2022/12/01 20:48:19;;;;;;;12.10;6.25;;;;;;;;;;10444324;28;20149;-51
2022/12/01 20:53:20;;;;;;;21.08;7.00;;;;;;;;;;10439805;28;20033;-51
2022/12/01 20:58:21;;;;;;;23.30;6.65;;;;;;;;;;10441638;28;20388;-50
2022/12/01 21:03:22;;;;;;;14.00;6.80;;;;;;;;;;10443103;28;20412;-53
2022/12/01 21:08:22;;;;;;;16.30;6.72;;;;;;;;;;10442375;28;20107;-53
2022/12/01 21:13:43;;;;;;;14.82;6.50;;;;;;;;;;10439055;28;20048;-57
2022/12/01 21:18:52;;;;;;;12.68;6.72;;;;;;;;;;10429962;28;20061;-47
2022/12/01 21:24:17;;;;;;;14.27;6.63;;;;;;;;;;10445049;28;20037;-50
2022/12/01 21:29:23;;;;;;;16.20;6.50;;;;;;;;;;10431329;28;20049;-48
2022/12/01 21:34:27;;;;;;;14.88;7.15;;;;;;;;;;10442783;28;20575;-49
2022/12/01 21:39:29;;;;;;;12.88;6.32;;;;;;;;;;10445178;28;20108;-52
2022/12/01 21:44:36;;;;;;;14.77;6.53;;;;;;;;;;10445878;28;20090;-52
2022/12/01 21:49:38;;;;;;;9.13;6.03;;;;;;;;;;10442804;28;20029;-51
2022/12/01 21:54:39;;;;;;;10.73;6.40;;;;;;;;;;10444677;28;20029;-56
2022/12/01 21:59:39;;;;;;;13.23;6.70;;;;;;;;;;10435828;28;20373;-56
2022/12/01 22:04:42;;;;;;;18.80;8.50;;;;;;;;;;10436513;28;20037;-55
2022/12/01 22:09:42;;;;;;;18.00;8.20;;;;;;;;;;10448391;28;20028;-53
2022/12/01 22:14:43;;;;;;;17.83;7.68;;;;;;;;;;10445481;28;20037;-54
2022/12/01 22:20:15;;;;;;;19.05;8.10;;;;;;;;;;10439491;28;20028;-53
2022/12/01 22:25:30;;;;;;;17.73;7.82;;;;;;;;;;10446502;28;20045;-55
2022/12/01 22:30:31;;;;;;;14.95;7.65;;;;;;;;;;10430599;28;20033;-55
2022/12/01 22:35:44;;;;;;;24.35;8.38;;;;;;;;;;10411595;28;20384;-53
2022/12/01 22:40:55;;;;;;;12.75;6.85;;;;;;;;;;10444117;28;20051;-53
2022/12/01 22:45:58;;;;;;;19.63;6.95;;;;;;;;;;10444426;28;20112;-56
2022/12/01 22:51:17;;;;;;;16.27;7.00;;;;;;;;;;10437454;28;20553;-56
2022/12/01 22:56:32;;;;;;;17.00;7.60;;;;;;;;;;10428370;28;20031;-52
2022/12/01 23:01:34;;;;;;;14.38;6.63;;;;;;;;;;10444653;28;20037;-55
2022/12/01 23:06:54;;;;;;;12.40;6.72;;;;;;;;;;10445211;28;20045;-58
2022/12/01 23:12:03;;;;;;;16.83;7.32;;;;;;;;;;10435251;28;20025;-58
2022/12/01 23:17:18;;;;;;;14.23;7.15;;;;;;;;;;10424456;28;20056;-58
2022/12/01 23:22:19;;;;;;;18.13;6.70;;;;;;;;;;10424429;28;20419;-58
2022/12/01 23:27:19;;;;;;;14.45;6.90;;;;;;;;;;10446347;28;20124;-58
2022/12/01 23:32:20;;;;;;;13.90;6.70;;;;;;;;;;10444869;28;20052;-57
2022/12/01 23:37:37;;;;;;;13.20;6.30;;;;;;;;;;10444896;28;20048;-58
2022/12/01 23:42:38;;;;;;;17.08;7.20;;;;;;;;;;10439652;28;20032;-46
2022/12/01 23:47:39;;;;;;;22.05;6.85;;;;;;;;;;10436643;28;20049;-54
2022/12/01 23:52:39;;;;;;;13.63;5.63;;;;;;;;;;10444162;28;20389;-54
2022/12/01 23:57:40;;;;;;;15.93;6.88;;;;;;;;;;10414626;28;20484;-51
